Lorraine L — WDB8580 — position and weather

sailwx.info

Track history (hours):
 
Tides and Currents Weather Stations Pressure Air Temp Water Temp Dewpoint Dewpoint Depression Visibility Wind Speed Wind Dir Waves Ship Positions

Lorraine L

Owner: Highland Towing LLC, Metairie, LA. More information available from US FCC via Universal Licensing System and Coast Guard Vessel Documentation Center.

Last reported at 2016-Jun-29 11:12 UTC. Time now 2016-Jun-29 18:16 UTC.
Position N 29°36' W 090°58'.

Length 19 m; draft 2.4 m.

Type: Towing. MMSI: 366961130.

Date/timePositionNaut miles runAvg speedWind from/ knotsBaromVisibWave heightAir tempDewpointWater temp
2016-Jun-29 11:12N 29°36' W 090°58'4 5.6
2016-Jun-29 10:29N 29°33' W 090°55'5 5.4
2016-Jun-29 09:33N 29°32' W 090°49'5 4.6
2016-Jun-29 08:34N 29°34' W 090°44'4 3.7
2016-Jun-29 07:34N 29°30' W 090°43'6 5.7
2016-Jun-29 06:33N 29°25' W 090°44'1 0.0
2016-Jun-28 01:11N 29°25' W 090°43'3 5.5
2016-Jun-28 00:34N 29°29' W 090°43'5 5.2
2016-Jun-27 23:33N 29°34' W 090°43'2 2.4
2016-Jun-27 22:32N 29°33' W 090°45'4 3.9
2016-Jun-27 21:33N 29°32' W 090°50'64 2.7
2016-Jun-26 21:33N 29°49' W 092°01'5 4.8
2016-Jun-26 20:33N 29°48' W 092°06'5 4.6
2016-Jun-26 19:33N 29°47' W 092°11'2 2.3
2016-Jun-26 18:33N 29°48' W 092°14'3 2.8
2016-Jun-26 17:34N 29°49' W 092°17'4 4.4
2016-Jun-26 16:33N 29°51' W 092°21'4 4.1
2016-Jun-26 15:33N 29°53' W 092°25'28 4.6
2016-Jun-26 09:27N 29°56' W 092°57'4 4.2
2016-Jun-26 08:31N 29°56' W 093°02'4 3.8
2016-Jun-26 07:28N 29°56' W 093°06'4 3.9
2016-Jun-26 06:33N 29°57' W 093°10'4 4.4
2016-Jun-26 05:33N 30°00' W 093°14'4 4.0
2016-Jun-26 04:33N 30°04' W 093°16'3 3.4
2016-Jun-26 03:31N 30°06' W 093°18'0 0.1
2016-Jun-26 02:31N 30°06' W 093°18'0 0.0
2016-Jun-26 01:31N 30°06' W 093°18'0 0.0
2016-Jun-26 00:28N 30°06' W 093°18'0 0.0
2016-Jun-25 23:31N 30°06' W 093°18'0 0.0
2016-Jun-25 22:31N 30°06' W 093°18'1 1.3
2016-Jun-25 21:33N 30°06' W 093°20'4 4.0
2016-Jun-25 20:34N 30°10' W 093°19'1 1.1
2016-Jun-25 19:31N 30°11' W 093°19'0 0.0
2016-Jun-25 18:31N 30°11' W 093°19'0 0.0
2016-Jun-25 17:31N 30°11' W 093°19'0 0.0
2016-Jun-25 16:31N 30°11' W 093°19'0 0.0
2016-Jun-25 15:31N 30°11' W 093°19'0 0.0
2016-Jun-25 14:31N 30°11' W 093°19'0 0.0
2016-Jun-25 13:31N 30°11' W 093°19'0 0.0
2016-Jun-25 12:31N 30°11' W 093°19'0 0.0
2016-Jun-25 11:31N 30°11' W 093°19'3 3.3
2016-Jun-25 10:34N 30°08' W 093°20'2 2.1
2016-Jun-25 09:31N 30°06' W 093°18'0 0.0
2016-Jun-25 08:31N 30°06' W 093°18'0 0.0
2016-Jun-25 07:31N 30°06' W 093°18'0 0.0
2016-Jun-25 06:31N 30°06' W 093°18'0 0.0
2016-Jun-25 05:31N 30°06' W 093°18'0 0.0
2016-Jun-25 04:31N 30°06' W 093°18'0 0.0
2016-Jun-25 03:31N 30°06' W 093°18'0 0.0
2016-Jun-25 02:31N 30°06' W 093°18'0 0.0
2016-Jun-25 01:31N 30°06' W 093°18'0 0.0
2016-Jun-25 00:31N 30°06' W 093°18'0 0.0
2016-Jun-24 23:31N 30°06' W 093°18'0 0.0
2016-Jun-24 22:31N 30°06' W 093°18'0 0.0
2016-Jun-24 21:31N 30°06' W 093°18'0 0.0
2016-Jun-24 20:31N 30°06' W 093°18'0 0.0
2016-Jun-24 19:31N 30°06' W 093°18'0 0.0
2016-Jun-24 18:31N 30°06' W 093°18'0 0.2
2016-Jun-24 17:33N 30°06' W 093°18'0 0.2
2016-Jun-24 16:33N 30°06' W 093°18'0 0.0
2016-Jun-24 15:33N 30°06' W 093°18'0 0.0
2016-Jun-24 14:33N 30°06' W 093°18'0 0.0
2016-Jun-24 13:33N 30°06' W 093°18'2 2.1
2016-Jun-24 12:32N 30°05' W 093°20'5 5.2
2016-Jun-24 11:33N 30°04' W 093°26'6 5.8
2016-Jun-24 10:34N 30°04' W 093°32'6 5.7
2016-Jun-24 09:34N 30°04' W 093°39'5 5.0
2016-Jun-24 08:34N 30°02' W 093°44'7 5.3
2016-Jun-24 07:11N 29°58' W 093°51'12 4.6
2016-Jun-24 04:33N 29°48' W 093°60'  
2016-Jun-21 12:14N 30°02' W 094°03'0 0.0
2016-Jun-21 08:29N 30°02' W 094°03'  
Track history (hours):
 
Tides and Currents Weather Stations Pressure Air Temp Water Temp Dewpoint Dewpoint Depression Visibility Wind Speed Wind Dir Waves Ship Positions

Lorraine L

Owner: Highland Towing LLC, Metairie, LA. More information available from US FCC via Universal Licensing System and Coast Guard Vessel Documentation Center.

Last reported at 2016-Jun-29 11:12 UTC. Time now 2016-Jun-29 18:16 UTC.
Position N 29°36' W 090°58'.

Length 19 m; draft 2.4 m.

Type: Towing. MMSI: 366961130.

Date/timePositionNaut miles runAvg speedWind from/ knotsBaromVisibWave heightAir tempDewpointWater temp
2016-Jun-29 11:12N 29°36' W 090°58'4 5.6
2016-Jun-29 10:29N 29°33' W 090°55'5 5.4
2016-Jun-29 09:33N 29°32' W 090°49'5 4.6
2016-Jun-29 08:34N 29°34' W 090°44'4 3.7
2016-Jun-29 07:34N 29°30' W 090°43'6 5.7
2016-Jun-29 06:33N 29°25' W 090°44'1 0.0
2016-Jun-28 01:11N 29°25' W 090°43'3 5.5
2016-Jun-28 00:34N 29°29' W 090°43'5 5.2
2016-Jun-27 23:33N 29°34' W 090°43'2 2.4
2016-Jun-27 22:32N 29°33' W 090°45'4 3.9
2016-Jun-27 21:33N 29°32' W 090°50'64 2.7
2016-Jun-26 21:33N 29°49' W 092°01'5 4.8
2016-Jun-26 20:33N 29°48' W 092°06'5 4.6
2016-Jun-26 19:33N 29°47' W 092°11'2 2.3
2016-Jun-26 18:33N 29°48' W 092°14'3 2.8
2016-Jun-26 17:34N 29°49' W 092°17'4 4.4
2016-Jun-26 16:33N 29°51' W 092°21'4 4.1
2016-Jun-26 15:33N 29°53' W 092°25'28 4.6
2016-Jun-26 09:27N 29°56' W 092°57'4 4.2
2016-Jun-26 08:31N 29°56' W 093°02'4 3.8
2016-Jun-26 07:28N 29°56' W 093°06'4 3.9
2016-Jun-26 06:33N 29°57' W 093°10'4 4.4
2016-Jun-26 05:33N 30°00' W 093°14'4 4.0
2016-Jun-26 04:33N 30°04' W 093°16'3 3.4
2016-Jun-26 03:31N 30°06' W 093°18'0 0.1
2016-Jun-26 02:31N 30°06' W 093°18'0 0.0
2016-Jun-26 01:31N 30°06' W 093°18'0 0.0
2016-Jun-26 00:28N 30°06' W 093°18'0 0.0
2016-Jun-25 23:31N 30°06' W 093°18'0 0.0
2016-Jun-25 22:31N 30°06' W 093°18'1 1.3
2016-Jun-25 21:33N 30°06' W 093°20'4 4.0
2016-Jun-25 20:34N 30°10' W 093°19'1 1.1
2016-Jun-25 19:31N 30°11' W 093°19'0 0.0
2016-Jun-25 18:31N 30°11' W 093°19'0 0.0
2016-Jun-25 17:31N 30°11' W 093°19'0 0.0
2016-Jun-25 16:31N 30°11' W 093°19'0 0.0
2016-Jun-25 15:31N 30°11' W 093°19'0 0.0
2016-Jun-25 14:31N 30°11' W 093°19'0 0.0
2016-Jun-25 13:31N 30°11' W 093°19'0 0.0
2016-Jun-25 12:31N 30°11' W 093°19'0 0.0
2016-Jun-25 11:31N 30°11' W 093°19'3 3.3
2016-Jun-25 10:34N 30°08' W 093°20'2 2.1
2016-Jun-25 09:31N 30°06' W 093°18'0 0.0
2016-Jun-25 08:31N 30°06' W 093°18'0 0.0
2016-Jun-25 07:31N 30°06' W 093°18'0 0.0
2016-Jun-25 06:31N 30°06' W 093°18'0 0.0
2016-Jun-25 05:31N 30°06' W 093°18'0 0.0
2016-Jun-25 04:31N 30°06' W 093°18'0 0.0
2016-Jun-25 03:31N 30°06' W 093°18'0 0.0
2016-Jun-25 02:31N 30°06' W 093°18'0 0.0
2016-Jun-25 01:31N 30°06' W 093°18'0 0.0
2016-Jun-25 00:31N 30°06' W 093°18'0 0.0
2016-Jun-24 23:31N 30°06' W 093°18'0 0.0
2016-Jun-24 22:31N 30°06' W 093°18'0 0.0
2016-Jun-24 21:31N 30°06' W 093°18'0 0.0
2016-Jun-24 20:31N 30°06' W 093°18'0 0.0
2016-Jun-24 19:31N 30°06' W 093°18'0 0.0
2016-Jun-24 18:31N 30°06' W 093°18'0 0.2
2016-Jun-24 17:33N 30°06' W 093°18'0 0.2
2016-Jun-24 16:33N 30°06' W 093°18'0 0.0
2016-Jun-24 15:33N 30°06' W 093°18'0 0.0
2016-Jun-24 14:33N 30°06' W 093°18'0 0.0
2016-Jun-24 13:33N 30°06' W 093°18'2 2.1
2016-Jun-24 12:32N 30°05' W 093°20'5 5.2
2016-Jun-24 11:33N 30°04' W 093°26'6 5.8
2016-Jun-24 10:34N 30°04' W 093°32'6 5.7
2016-Jun-24 09:34N 30°04' W 093°39'5 5.0
2016-Jun-24 08:34N 30°02' W 093°44'7 5.3
2016-Jun-24 07:11N 29°58' W 093°51'12 4.6
2016-Jun-24 04:33N 29°48' W 093°60'  
2016-Jun-21 12:14N 30°02' W 094°03'0 0.0
2016-Jun-21 08:29N 30°02' W 094°03'  

Dump ship's entire track history